Time;durP1;ratioP1;P1;durP2;ratioP2;P2;SDS_P1;SDS_P2;PMS_P1;PMS_P2;Temp;Humidity;BMP_temperature;BMP_pressure;BME280_temperature;BME280_humidity;BME280_pressure;Samples;Min_cycle;Max_cycle;Signal;HPM_P1;HPM_P2
2021/09/16 00:01:58;;;;;;;3.80;2.97;;;;;;;22.20;65.75;97049.78;5046918;28;20441;-78
2021/09/16 00:04:24;;;;;;;3.72;3.28;;;;;;;22.13;64.87;97055.59;5030352;28;20654;-78
2021/09/16 00:06:49;;;;;;;4.90;2.78;;;;;;;21.77;65.70;97045.53;5048347;28;20033;-78
2021/09/16 00:09:14;;;;;;;2.80;2.60;;;;;;;21.77;65.77;97043.66;5048390;28;20025;-78
2021/09/16 00:11:40;;;;;;;2.63;2.42;;;;;;;21.75;65.60;97045.84;5047705;28;20111;-77
2021/09/16 00:14:05;;;;;;;2.80;2.60;;;;;;;21.38;66.21;97042.88;5030661;28;20324;-78
2021/09/16 00:16:30;;;;;;;3.38;3.08;;;;;;;21.35;66.25;97048.03;5064161;28;20106;-78
2021/09/16 00:18:56;;;;;;;5.55;4.97;;;;;;;20.99;67.16;97063.25;5031041;28;20039;-77
2021/09/16 00:21:21;;;;;;;4.97;4.57;;;;;;;20.79;67.83;97063.91;5047369;28;20041;-78
2021/09/16 00:23:46;;;;;;;5.97;4.78;;;;;;;20.83;67.84;97064.81;5034168;28;20043;-78
2021/09/16 00:26:12;;;;;;;5.43;4.85;;;;;;;20.85;67.60;97067.94;5034224;28;20037;-79
2021/09/16 00:28:37;;;;;;;5.35;4.85;;;;;;;21.03;66.87;97069.47;5050413;28;20071;-79
2021/09/16 00:31:03;;;;;;;6.18;5.20;;;;;;;21.05;66.82;97069.16;5033391;28;20366;-79
2021/09/16 00:33:28;;;;;;;9.63;6.10;;;;;;;20.97;67.37;97076.00;5050500;28;20040;-78
2021/09/16 00:35:53;;;;;;;8.35;7.47;;;;;;;20.72;68.21;97065.16;5051976;28;20037;-78
2021/09/16 00:38:19;;;;;;;14.15;11.77;;;;;;;20.57;68.39;97068.25;5017269;28;20075;-78
2021/09/16 00:40:44;;;;;;;17.45;13.52;;;;;;;20.61;68.44;97069.16;5000457;28;20029;-78
2021/09/16 00:43:10;;;;;;;19.77;14.23;;;;;;;20.54;68.48;97068.84;5033880;28;20273;-79
2021/09/16 00:45:35;;;;;;;18.08;13.63;;;;;;;20.45;68.72;97078.66;5033743;28;20040;-78
2021/09/16 00:48:00;;;;;;;20.13;15.10;;;;;;;20.49;68.34;97074.31;5000747;28;20025;-78
2021/09/16 00:50:26;;;;;;;19.15;14.60;;;;;;;20.43;68.54;97075.56;5016367;28;20524;-77
2021/09/16 00:52:52;;;;;;;17.63;14.20;;;;;;;20.25;68.98;97080.03;5017217;28;20033;-79
2021/09/16 00:59:00;;;;;;;19.50;15.23;;;;;;;19.92;69.97;97075.94;5051028;28;20043;-77
2021/09/16 01:01:25;;;;;;;21.75;16.13;;;;;;;19.96;69.73;97074.25;5033443;28;20033;-77
2021/09/16 01:03:53;;;;;;;20.35;15.85;;;;;;;19.93;70.14;97080.16;5039298;23;20048;-78
2021/09/16 01:06:19;;;;;;;20.00;15.40;;;;;;;19.97;69.83;97080.31;5014296;28;20044;-78
2021/09/16 01:08:44;;;;;;;20.50;16.08;;;;;;;20.12;69.30;97079.09;5013372;28;20041;-78
2021/09/16 01:11:11;;;;;;;20.40;15.65;;;;;;;19.78;69.93;97080.56;5013560;28;20064;-78
2021/09/16 01:13:36;;;;;;;22.80;15.50;;;;;;;19.95;69.73;97083.25;4996925;28;20388;-78
2021/09/16 01:16:02;;;;;;;18.95;14.90;;;;;;;19.94;69.43;97089.63;5013517;28;20128;-78
2021/09/16 01:18:27;;;;;;;21.85;15.15;;;;;;;19.95;69.66;97077.97;4997015;28;20113;-78
2021/09/16 01:20:54;;;;;;;23.52;15.88;;;;;;;19.99;69.46;97080.78;5013170;28;20072;-78
2021/09/16 01:23:21;;;;;;;22.33;16.42;;;;;;;20.01;69.16;97082.03;5013550;28;20091;-78
2021/09/16 01:25:47;;;;;;;22.35;17.60;;;;;;;19.96;69.23;97082.19;4996638;28;20036;-78
2021/09/16 01:28:12;;;;;;;23.52;17.38;;;;;;;19.99;69.28;97078.13;5013133;28;20409;-78
2021/09/16 01:30:37;;;;;;;26.92;18.38;;;;;;;20.06;69.01;97075.03;5013116;28;20112;-78
2021/09/16 01:33:03;;;;;;;26.13;17.52;;;;;;;20.04;69.15;97087.78;5012040;28;20088;-78
2021/09/16 01:35:28;;;;;;;27.67;18.60;;;;;;;20.10;68.88;97081.25;5013346;28;20545;-78
2021/09/16 01:37:54;;;;;;;24.75;17.40;;;;;;;20.16;68.68;97085.31;5030205;28;20025;-78
2021/09/16 01:40:20;;;;;;;23.58;18.27;;;;;;;20.15;68.83;97081.91;5013133;28;20428;-78
2021/09/16 01:42:46;;;;;;;24.67;17.15;;;;;;;20.09;68.61;97082.38;5012133;28;20537;-77
2021/09/16 01:45:20;;;;;;;25.10;17.75;;;;;;;19.97;69.11;97081.09;4996000;28;20025;-77
2021/09/16 01:47:46;;;;;;;26.35;19.77;;;;;;;20.20;68.80;97079.13;5012253;28;20462;-77
2021/09/16 01:50:13;;;;;;;23.58;18.25;;;;;;;20.14;68.63;97080.34;5012186;28;20530;-77
2021/09/16 01:52:39;;;;;;;25.25;18.00;;;;;;;20.18;68.78;97083.16;4995517;28;20025;-77
2021/09/16 01:55:05;;;;;;;25.25;17.58;;;;;;;20.22;68.69;97086.75;5012383;28;20029;-77
2021/09/16 01:57:30;;;;;;;22.58;16.55;;;;;;;20.14;68.74;97079.56;5012374;28;20432;-77
2021/09/16 01:59:56;;;;;;;25.67;17.48;;;;;;;20.09;68.70;97071.78;5012076;28;20124;-77
2021/09/16 02:02:21;;;;;;;25.30;17.55;;;;;;;20.10;69.08;97079.41;5029624;28;20365;-77
2021/09/16 02:04:46;;;;;;;23.80;17.73;;;;;;;20.10;68.97;97076.78;5028532;28;20065;-77
2021/09/16 02:07:12;;;;;;;23.92;17.58;;;;;;;19.98;69.08;97081.84;5012611;28;20029;-78
2021/09/16 02:09:37;;;;;;;23.67;16.83;;;;;;;20.02;68.86;97078.28;5012321;28;20039;-77
2021/09/16 02:12:03;;;;;;;23.42;18.33;;;;;;;20.02;68.91;97083.59;4978891;28;20039;-77
2021/09/16 02:14:28;;;;;;;27.15;18.80;;;;;;;19.98;69.17;97085.28;5012239;28;20033;-77
2021/09/16 02:16:54;;;;;;;24.90;18.60;;;;;;;20.00;69.31;97087.63;4979562;28;20037;-77
2021/09/16 02:19:19;;;;;;;23.65;16.83;;;;;;;20.00;69.29;97083.13;4995811;28;20473;-77
2021/09/16 02:21:44;;;;;;;25.27;17.42;;;;;;;20.00;69.55;97085.00;5011257;28;20509;-77
2021/09/16 02:24:10;;;;;;;25.77;17.25;;;;;;;20.02;69.10;97091.50;5011994;28;20040;-77
2021/09/16 02:26:35;;;;;;;25.55;17.92;;;;;;;20.04;69.48;97093.84;4995352;28;20026;-77
2021/09/16 02:29:01;;;;;;;23.80;16.58;;;;;;;20.09;69.32;97090.28;5011918;28;20037;-77
2021/09/16 02:31:26;;;;;;;24.00;17.50;;;;;;;20.11;69.20;97088.13;5011798;28;20033;-78
2021/09/16 02:33:51;;;;;;;23.30;18.20;;;;;;;20.06;69.06;97080.31;4995335;28;20026;-78
2021/09/16 02:36:17;;;;;;;23.15;17.67;;;;;;;19.99;69.01;97084.19;4995243;28;20034;-78
2021/09/16 02:38:42;;;;;;;25.38;17.50;;;;;;;19.95;69.36;97075.34;5011624;28;20064;-78
2021/09/16 02:41:07;;;;;;;24.20;17.88;;;;;;;19.96;69.46;97073.47;4995091;28;20486;-78
2021/09/16 02:43:33;;;;;;;27.35;19.45;;;;;;;19.93;69.59;97074.88;4995037;28;20029;-78
2021/09/16 02:45:58;;;;;;;25.40;17.92;;;;;;;19.96;69.54;97070.81;4994346;28;20036;-78
2021/09/16 02:48:23;;;;;;;26.95;18.65;;;;;;;19.94;69.52;97067.72;5011584;28;20119;-78
2021/09/16 02:50:49;;;;;;;26.23;18.27;;;;;;;20.04;69.21;97077.22;5011416;28;20041;-78
2021/09/16 02:53:14;;;;;;;25.30;17.75;;;;;;;20.12;69.02;97079.09;5011233;28;20155;-78
2021/09/16 02:55:40;;;;;;;24.58;19.27;;;;;;;20.10;68.79;97090.00;5011585;28;20400;-78
2021/09/16 02:58:05;;;;;;;26.13;18.40;;;;;;;20.12;68.71;97084.41;5011589;28;20034;-78
2021/09/16 03:00:31;;;;;;;26.17;18.00;;;;;;;20.19;68.71;97088.13;5028266;28;20468;-78
2021/09/16 03:02:56;;;;;;;24.52;17.88;;;;;;;20.17;68.47;97092.94;5010494;28;20358;-78
2021/09/16 03:05:21;;;;;;;25.58;16.95;;;;;;;20.18;68.40;97081.28;4995163;28;20100;-78
2021/09/16 03:07:47;;;;;;;24.83;18.38;;;;;;;20.16;68.87;97086.09;4994924;28;20025;-78
2021/09/16 03:10:13;;;;;;;27.13;18.88;;;;;;;20.13;69.01;97075.34;4995016;28;20124;-78
2021/09/16 03:12:39;;;;;;;26.33;18.40;;;;;;;20.12;68.74;97081.75;5011364;28;20037;-78
2021/09/16 03:15:05;;;;;;;25.30;17.85;;;;;;;20.10;68.75;97087.34;4994817;28;20029;-78
2021/09/16 03:17:31;;;;;;;24.15;16.50;;;;;;;20.11;68.94;97082.81;5011395;28;20022;-78
2021/09/16 03:19:56;;;;;;;27.10;18.83;;;;;;;20.09;68.88;97079.72;4994506;28;20047;-78
2021/09/16 03:22:21;;;;;;;25.60;18.75;;;;;;;20.08;69.06;97084.22;5011033;28;20025;-78
2021/09/16 03:24:47;;;;;;;26.23;18.50;;;;;;;19.92;69.61;97078.59;5011190;28;20036;-78
2021/09/16 03:27:12;;;;;;;25.30;17.27;;;;;;;19.88;69.82;97077.66;5011230;28;20056;-78
2021/09/16 03:29:38;;;;;;;27.52;17.77;;;;;;;19.89;69.74;97079.19;5011183;28;20040;-78
2021/09/16 03:32:03;;;;;;;26.90;18.05;;;;;;;19.83;69.97;97077.78;5010687;28;20469;-78
2021/09/16 03:34:29;;;;;;;20.80;15.65;;;;;;;19.85;69.88;97085.41;5011483;28;20266;-78
2021/09/16 03:36:54;;;;;;;20.73;16.17;;;;;;;19.83;69.36;97073.28;5011291;28;20037;-78
2021/09/16 03:39:19;;;;;;;23.55;16.55;;;;;;;19.77;69.71;97089.56;4995114;28;20101;-78
2021/09/16 03:41:45;;;;;;;22.98;15.57;;;;;;;19.85;69.24;97074.84;5010643;28;20034;-78
2021/09/16 03:44:10;;;;;;;22.90;15.65;;;;;;;19.75;69.46;97083.81;5011403;28;20041;-78
2021/09/16 03:46:35;;;;;;;22.67;16.50;;;;;;;19.60;69.78;97087.63;4994868;28;20062;-78
2021/09/16 03:49:01;;;;;;;20.77;16.40;;;;;;;19.69;69.24;97092.94;5027509;28;20033;-78
2021/09/16 03:51:26;;;;;;;20.67;15.95;;;;;;;19.50;69.63;97096.59;5028964;28;20101;-78
2021/09/16 03:53:51;;;;;;;23.70;16.95;;;;;;;19.58;69.66;97106.41;5010779;28;20029;-78
2021/09/16 03:56:17;;;;;;;21.70;16.40;;;;;;;19.64;69.35;97097.28;5028802;28;20060;-78
2021/09/16 03:58:42;;;;;;;21.98;16.00;;;;;;;19.46;69.47;97099.03;5014819;28;20106;-78
2021/09/16 04:01:08;;;;;;;22.60;15.98;;;;;;;19.52;69.72;97098.91;5014729;28;20060;-78
2021/09/16 04:03:33;;;;;;;24.90;17.38;;;;;;;19.37;70.06;97105.38;5014202;28;20045;-78
2021/09/16 04:05:59;;;;;;;26.40;17.90;;;;;;;19.44;69.57;97108.38;4998067;28;20389;-78
2021/09/16 04:08:24;;;;;;;25.67;17.73;;;;;;;19.56;69.51;97103.28;5014882;28;20461;-78
2021/09/16 04:10:49;;;;;;;22.42;15.98;;;;;;;19.53;69.13;97103.13;5014569;28;20037;-78
2021/09/16 04:13:15;;;;;;;21.52;15.80;;;;;;;19.50;69.09;97107.16;5032213;28;20033;-78
2021/09/16 04:15:40;;;;;;;23.92;16.90;;;;;;;19.55;69.21;97112.31;5014230;28;20483;-78
2021/09/16 04:18:05;;;;;;;21.23;15.48;;;;;;;19.54;69.10;97116.03;5030554;28;20056;-78
2021/09/16 04:20:31;;;;;;;24.85;17.70;;;;;;;19.49;69.17;97110.88;5014554;28;20445;-78
2021/09/16 04:22:56;;;;;;;24.38;17.08;;;;;;;19.50;68.98;97117.72;4997312;28;20033;-77
2021/09/16 04:25:22;;;;;;;24.30;17.30;;;;;;;19.36;69.28;97106.47;5014461;28;20084;-77
2021/09/16 04:27:47;;;;;;;20.92;16.05;;;;;;;19.34;69.34;97106.00;5031915;28;20072;-78
2021/09/16 04:30:12;;;;;;;24.70;17.10;;;;;;;19.40;69.55;97115.34;4997582;28;20040;-78
2021/09/16 04:32:38;;;;;;;23.58;17.52;;;;;;;19.41;69.68;97120.31;5013588;28;20033;-78
2021/09/16 04:35:06;;;;;;;26.35;17.58;;;;;;;19.40;69.23;97120.63;5031397;28;20108;-78
2021/09/16 04:37:31;;;;;;;25.08;16.77;;;;;;;19.54;69.12;97125.81;4981262;28;20385;-78
2021/09/16 04:39:56;;;;;;;20.08;14.23;;;;;;;19.62;68.94;97123.22;5013608;28;20163;-78
2021/09/16 04:42:22;;;;;;;25.08;16.90;;;;;;;19.60;68.75;97128.03;5013355;28;20384;-77
2021/09/16 04:44:47;;;;;;;25.63;16.88;;;;;;;19.61;68.94;97132.22;5031258;28;20029;-78
2021/09/16 04:47:12;;;;;;;21.90;16.00;;;;;;;19.64;68.87;97134.25;5013647;28;20030;-78
2021/09/16 04:49:38;;;;;;;21.85;15.77;;;;;;;19.65;69.09;97135.81;5018758;28;20033;-77
2021/09/16 04:52:03;;;;;;;24.83;15.70;;;;;;;19.63;69.00;97137.19;5013063;28;20171;-77
2021/09/16 04:54:29;;;;;;;22.00;15.77;;;;;;;19.64;69.00;97142.19;4997374;28;20332;-77
2021/09/16 04:56:54;;;;;;;24.58;16.65;;;;;;;19.60;68.92;97138.59;5031258;28;20030;-77
2021/09/16 04:59:19;;;;;;;23.40;16.77;;;;;;;19.62;68.54;97130.34;5012761;28;20029;-77
2021/09/16 05:01:47;;;;;;;25.88;16.65;;;;;;;19.64;68.92;97134.25;5011867;28;20029;-77
2021/09/16 05:04:12;;;;;;;23.90;17.35;;;;;;;19.61;69.01;97134.84;5028565;28;20063;-77
2021/09/16 05:06:38;;;;;;;21.88;16.15;;;;;;;19.60;68.98;97138.59;5012228;28;20101;-77
2021/09/16 05:09:03;;;;;;;23.42;16.73;;;;;;;19.59;68.83;97147.59;5011441;28;20200;-77
2021/09/16 05:11:29;;;;;;;23.63;16.27;;;;;;;19.56;69.02;97148.19;5024318;28;20037;-77
2021/09/16 05:13:54;;;;;;;22.35;16.60;;;;;;;19.62;68.81;97152.28;4995599;28;20034;-77
2021/09/16 05:16:20;;;;;;;23.02;14.95;;;;;;;19.65;68.83;97156.97;5012235;28;20029;-77
2021/09/16 05:18:51;;;;;;;23.00;16.80;;;;;;;19.47;68.85;97157.94;4995453;28;20665;-77
2021/09/16 05:21:16;;;;;;;22.02;16.00;;;;;;;19.60;68.34;97156.28;5030058;28;20036;-77
2021/09/16 05:23:42;;;;;;;22.75;16.23;;;;;;;19.58;68.52;97161.88;4995955;28;20041;-77
2021/09/16 05:26:07;;;;;;;25.17;17.35;;;;;;;19.57;68.73;97157.69;4996173;28;20033;-77
2021/09/16 05:28:32;;;;;;;23.73;16.63;;;;;;;19.56;68.69;97166.69;5013278;28;20544;-78
2021/09/16 05:30:58;;;;;;;27.17;17.45;;;;;;;19.49;68.65;97168.97;4996339;28;20033;-78
2021/09/16 05:33:23;;;;;;;24.05;16.95;;;;;;;19.56;68.85;97164.03;4995947;28;20030;-78
2021/09/16 05:35:48;;;;;;;21.52;16.08;;;;;;;19.61;68.82;97166.56;4996623;28;20349;-78
2021/09/16 05:38:14;;;;;;;25.73;16.33;;;;;;;19.57;68.32;97162.97;5030717;28;20029;-78
2021/09/16 05:40:40;;;;;;;24.52;16.52;;;;;;;19.54;68.61;97168.06;5030458;28;20064;-78
2021/09/16 05:43:05;;;;;;;25.70;16.35;;;;;;;19.49;68.65;97161.06;5012319;28;20040;-78
2021/09/16 05:45:31;;;;;;;22.63;15.52;;;;;;;19.50;68.55;97170.53;5012926;28;20060;-78
2021/09/16 05:47:56;;;;;;;21.95;14.27;;;;;;;19.25;68.78;97177.22;5012618;28;20404;-78
2021/09/16 05:50:22;;;;;;;20.83;14.40;;;;;;;19.28;68.36;97172.13;5013342;28;20037;-78
2021/09/16 05:52:47;;;;;;;17.30;12.63;;;;;;;19.32;68.08;97184.72;4995712;28;20047;-78
2021/09/16 05:55:13;;;;;;;19.38;14.43;;;;;;;19.30;68.19;97189.53;4983197;28;20038;-77
2021/09/16 05:57:38;;;;;;;22.17;15.98;;;;;;;19.25;68.31;97195.69;5069923;28;20029;-78
2021/09/16 06:00:06;;;;;;;24.42;15.70;;;;;;;19.17;68.54;97199.81;5047851;28;20144;-77
2021/09/16 06:02:31;;;;;;;22.60;14.88;;;;;;;19.23;68.45;97196.00;5014928;28;20028;-77
2021/09/16 06:04:57;;;;;;;19.85;13.40;;;;;;;19.27;68.57;97193.53;5015223;28;20047;-77
2021/09/16 06:07:22;;;;;;;20.17;13.52;;;;;;;19.25;68.31;97199.09;5032283;28;20528;-77
2021/09/16 06:09:47;;;;;;;20.00;14.10;;;;;;;19.11;68.58;97193.13;5015191;28;20558;-77
2021/09/16 06:12:13;;;;;;;21.88;13.38;;;;;;;19.06;68.37;97193.22;5015504;28;20033;-78
2021/09/16 06:14:38;;;;;;;18.17;12.70;;;;;;;19.12;68.09;97194.66;5032133;28;20456;-78
2021/09/16 06:17:04;;;;;;;19.77;12.77;;;;;;;19.25;67.50;97193.81;5031429;28;20040;-78
2021/09/16 06:19:29;;;;;;;17.48;12.73;;;;;;;19.22;67.95;97191.78;5031726;28;20133;-77
2021/09/16 06:21:54;;;;;;;17.42;13.10;;;;;;;19.28;67.88;97200.38;5014652;28;20119;-77
2021/09/16 06:24:20;;;;;;;16.38;12.85;;;;;;;19.33;67.71;97202.09;5031938;28;20029;-78
2021/09/16 06:26:45;;;;;;;20.08;13.65;;;;;;;19.31;67.95;97201.63;5031728;28;20030;-78
2021/09/16 06:29:11;;;;;;;16.27;13.38;;;;;;;19.34;67.69;97208.94;5015282;28;20025;-78
2021/09/16 06:31:37;;;;;;;24.50;14.50;;;;;;;19.32;68.12;97211.13;5048947;28;20480;-78
2021/09/16 06:34:05;;;;;;;22.52;13.82;;;;;;;19.25;67.85;97208.88;5031369;28;20029;-78
2021/09/16 06:36:30;;;;;;;20.17;13.75;;;;;;;19.32;67.88;97213.75;5015049;28;20055;-77
2021/09/16 06:38:56;;;;;;;18.75;13.05;;;;;;;19.33;67.62;97213.47;5031450;28;20025;-77
2021/09/16 06:41:21;;;;;;;23.20;14.45;;;;;;;19.34;68.16;97219.50;5048762;28;20155;-77
2021/09/16 06:43:46;;;;;;;15.20;11.10;;;;;;;19.38;67.09;97215.19;5014972;28;20130;-78
2021/09/16 06:46:12;;;;;;;16.23;12.73;;;;;;;19.28;67.13;97213.59;5015048;28;20037;-78
2021/09/16 06:48:37;;;;;;;17.40;11.32;;;;;;;19.30;67.31;97216.69;4998858;28;20013;-78
2021/09/16 06:51:04;;;;;;;20.38;12.10;;;;;;;19.05;66.92;97215.41;5031365;28;20456;-78
2021/09/16 06:53:29;;;;;;;19.05;12.88;;;;;;;19.13;67.56;97217.34;5030959;28;20064;-78
2021/09/16 06:55:55;;;;;;;18.02;11.38;;;;;;;19.16;67.31;97208.84;5014815;28;20522;-78
2021/09/16 06:58:20;;;;;;;17.63;11.70;;;;;;;19.19;67.46;97218.00;4998413;28;20025;-77
2021/09/16 07:00:45;;;;;;;15.45;10.50;;;;;;;19.25;66.70;97222.09;5014425;28;20434;-77
2021/09/16 07:03:11;;;;;;;16.35;10.60;;;;;;;19.22;66.01;97231.38;5030438;28;20060;-78
2021/09/16 07:05:36;;;;;;;15.98;10.68;;;;;;;19.24;66.68;97231.06;5014629;28;20064;-78
2021/09/16 07:08:02;;;;;;;16.23;10.85;;;;;;;19.09;67.20;97230.34;5030940;28;20033;-77
2021/09/16 07:10:27;;;;;;;16.85;12.05;;;;;;;19.03;67.47;97228.91;5014366;28;20037;-77
2021/09/16 07:12:53;;;;;;;15.45;11.93;;;;;;;19.07;67.54;97237.00;5031192;28;20032;-78
2021/09/16 07:15:18;;;;;;;20.40;12.35;;;;;;;19.08;67.37;97239.34;5031084;28;20041;-77
2021/09/16 07:17:43;;;;;;;23.35;14.02;;;;;;;19.07;67.63;97243.06;5014287;28;20025;-77
2021/09/16 07:20:09;;;;;;;21.13;13.82;;;;;;;19.11;68.14;97247.72;5013475;28;20492;-77
2021/09/16 07:22:35;;;;;;;21.75;13.55;;;;;;;19.05;68.64;97242.56;5010765;28;20294;-77
2021/09/16 07:25:00;;;;;;;16.10;12.27;;;;;;;19.13;68.07;97249.00;5011185;28;20030;-78
2021/09/16 07:27:25;;;;;;;16.92;12.40;;;;;;;18.98;68.22;97249.34;5027241;28;20033;-78
2021/09/16 07:29:51;;;;;;;16.15;12.10;;;;;;;19.14;67.97;97249.78;5010926;28;20034;-78
2021/09/16 07:32:16;;;;;;;17.33;11.90;;;;;;;19.14;67.36;97247.16;5030202;28;20489;-78
2021/09/16 07:34:42;;;;;;;19.25;12.75;;;;;;;18.97;68.61;97247.78;5033125;28;20072;-77
2021/09/16 07:37:07;;;;;;;18.90;13.23;;;;;;;18.94;68.51;97253.66;5031402;28;20552;-77
2021/09/16 07:39:33;;;;;;;18.77;13.82;;;;;;;19.06;68.35;97261.84;5014963;28;20056;-78
2021/09/16 07:41:58;;;;;;;20.08;13.98;;;;;;;19.07;68.66;97264.19;5016706;28;20034;-78
2021/09/16 07:44:24;;;;;;;22.85;14.70;;;;;;;19.11;68.79;97269.66;5014784;28;20057;-78
2021/09/16 07:46:49;;;;;;;20.58;14.88;;;;;;;19.07;68.97;97274.75;5032544;28;20033;-77
2021/09/16 07:49:14;;;;;;;19.05;13.55;;;;;;;19.16;68.51;97281.94;5032252;28;20029;-78
2021/09/16 07:51:40;;;;;;;18.13;12.95;;;;;;;19.26;68.38;97285.16;5011890;28;20171;-77
2021/09/16 07:54:05;;;;;;;18.85;13.77;;;;;;;19.34;68.54;97285.50;5051214;28;20041;-78
2021/09/16 07:56:31;;;;;;;21.42;14.75;;;;;;;19.34;68.29;97288.16;5034128;28;20029;-78
2021/09/16 07:58:56;;;;;;;22.20;13.63;;;;;;;19.36;68.28;97289.41;5022119;28;20540;-77
2021/09/16 08:01:22;;;;;;;19.00;13.88;;;;;;;19.36;67.97;97278.06;4998268;28;20464;-78
2021/09/16 08:03:47;;;;;;;19.52;13.27;;;;;;;19.37;67.31;97287.56;5038007;28;20032;-78
2021/09/16 08:06:13;;;;;;;17.75;12.98;;;;;;;19.40;67.53;97290.38;4999148;28;20690;-78
2021/09/16 08:08:39;;;;;;;19.52;14.35;;;;;;;19.34;68.27;97302.13;5013079;28;20052;-77
2021/09/16 08:11:04;;;;;;;23.08;14.15;;;;;;;19.34;68.56;97309.28;5000988;28;20029;-77
2021/09/16 08:13:30;;;;;;;20.08;13.65;;;;;;;19.43;67.63;97307.47;5048133;28;20318;-78
2021/09/16 08:15:55;;;;;;;19.77;13.35;;;;;;;19.42;67.83;97312.00;5035158;28;20033;-77
2021/09/16 08:18:21;;;;;;;18.27;11.90;;;;;;;19.37;67.59;97303.41;5053185;28;20029;-77
2021/09/16 08:20:51;;;;;;;17.92;12.88;;;;;;;19.39;68.04;97309.94;5036029;28;20024;-77
2021/09/16 08:23:17;;;;;;;16.90;13.23;;;;;;;19.37;68.29;97314.75;5047639;28;20431;-77
2021/09/16 08:25:43;;;;;;;18.98;13.68;;;;;;;19.37;68.28;97325.31;5032129;28;20028;-77
2021/09/16 08:28:08;;;;;;;19.25;13.00;;;;;;;19.41;67.93;97320.22;5015807;28;20037;-77
2021/09/16 08:30:34;;;;;;;18.42;12.90;;;;;;;19.24;68.18;97313.72;5033051;28;20048;-77
2021/09/16 08:32:59;;;;;;;18.23;11.52;;;;;;;19.01;67.67;97314.72;5051600;28;20047;-78
2021/09/16 08:35:31;;;;;;;16.88;12.45;;;;;;;18.77;68.02;97317.56;5052550;28;20330;-77
2021/09/16 08:37:59;;;;;;;18.65;12.75;;;;;;;19.06;67.74;97325.94;5033817;28;20022;-77
2021/09/16 08:40:25;;;;;;;21.05;12.13;;;;;;;19.17;68.25;97315.94;5038282;28;20047;-77
2021/09/16 08:42:51;;;;;;;19.88;13.35;;;;;;;19.16;68.20;97330.25;5050072;28;20036;-77
2021/09/16 08:45:19;;;;;;;16.50;11.93;;;;;;;19.07;68.03;97330.16;5035349;28;20051;-77
2021/09/16 08:47:47;;;;;;;21.10;13.43;;;;;;;19.25;68.52;97328.47;5052246;28;20090;-77
2021/09/16 08:50:13;;;;;;;17.73;12.32;;;;;;;19.32;67.83;97322.78;5035419;28;20029;-77
2021/09/16 08:52:40;;;;;;;17.48;13.40;;;;;;;19.41;68.14;97328.13;5041238;28;20044;-77
2021/09/16 08:55:08;;;;;;;19.05;13.43;;;;;;;19.45;67.88;97315.91;5036356;28;20094;-77
2021/09/16 08:57:39;;;;;;;18.48;13.10;;;;;;;19.66;68.17;97321.50;5016650;28;20063;-77
2021/09/16 09:00:07;;;;;;;20.60;12.40;;;;;;;19.61;67.33;97324.25;5018268;28;20395;-77
2021/09/16 09:02:34;;;;;;;15.82;10.95;;;;;;;19.72;66.93;97320.28;5050417;28;20109;-77
2021/09/16 09:05:00;;;;;;;15.32;11.25;;;;;;;19.90;66.15;97325.75;5026359;28;20052;-77
2021/09/16 09:07:38;;;;;;;15.02;10.38;;;;;;;19.73;65.92;97319.22;5049973;28;20448;-77
2021/09/16 09:10:05;;;;;;;13.15;10.10;;;;;;;20.02;65.30;97328.63;5052217;28;20032;-78
2021/09/16 09:12:34;;;;;;;13.48;9.52;;;;;;;20.26;64.86;97328.28;5017227;28;20395;-77
2021/09/16 09:15:00;;;;;;;14.85;9.10;;;;;;;20.42;63.30;97330.53;5051758;28;20115;-77
2021/09/16 09:17:33;;;;;;;12.48;8.40;;;;;;;20.28;63.29;97328.75;5035088;28;20550;-77
2021/09/16 09:20:06;;;;;;;12.35;9.68;;;;;;;20.13;65.32;97334.41;5035454;28;20029;-77
2021/09/16 09:22:34;;;;;;;15.38;9.25;;;;;;;20.22;65.56;97335.25;5051016;28;20410;-77
2021/09/16 09:25:02;;;;;;;11.05;8.68;;;;;;;20.37;65.26;97340.16;5021452;28;20089;-77
2021/09/16 09:27:31;;;;;;;11.52;8.55;;;;;;;20.27;63.56;97339.63;5014779;28;20099;-77
2021/09/16 09:30:13;;;;;;;12.63;9.05;;;;;;;20.16;63.27;97331.94;5031412;28;20025;-77
2021/09/16 09:32:58;;;;;;;13.65;8.18;;;;;;;20.16;64.00;97344.41;5014784;28;20029;-77
2021/09/16 09:35:40;;;;;;;12.88;9.18;;;;;;;20.01;63.33;97340.25;5049602;28;20033;-77
2021/09/16 09:38:23;;;;;;;11.52;8.18;;;;;;;20.12;64.88;97343.44;5049574;28;20052;-77
2021/09/16 09:41:08;;;;;;;12.50;8.10;;;;;;;19.95;63.53;97341.47;4998503;28;20094;-77
2021/09/16 09:43:33;;;;;;;9.98;7.55;;;;;;;20.19;63.44;97341.16;5012938;28;20028;-78
2021/09/16 09:46:13;;;;;;;8.73;7.55;;;;;;;19.99;63.47;97339.78;5027323;28;20251;-77
2021/09/16 09:48:45;;;;;;;8.55;7.65;;;;;;;20.23;62.80;97344.75;5011867;28;20033;-78
2021/09/16 09:51:12;;;;;;;10.27;7.97;;;;;;;20.01;63.38;97342.91;5040663;28;20425;-78
2021/09/16 09:53:41;;;;;;;12.18;7.60;;;;;;;20.04;63.82;97341.53;5048031;28;20037;-78
2021/09/16 09:56:25;;;;;;;9.93;8.00;;;;;;;19.76;65.18;97352.22;5014564;28;20119;-78
2021/09/16 09:58:53;;;;;;;9.52;7.70;;;;;;;20.16;62.55;97355.75;5024995;28;20431;-77
2021/09/16 10:01:25;;;;;;;10.25;7.18;;;;;;;20.21;62.88;97357.50;5031076;28;20079;-78
2021/09/16 10:03:51;;;;;;;9.82;7.55;;;;;;;20.50;62.22;97353.59;5030936;28;20064;-78
2021/09/16 10:06:16;;;;;;;9.23;7.68;;;;;;;20.59;62.69;97349.13;5047056;28;20076;-78
2021/09/16 10:08:41;;;;;;;12.32;7.65;;;;;;;20.48;61.28;97351.25;5031014;28;20037;-78
2021/09/16 10:11:07;;;;;;;7.65;6.57;;;;;;;20.63;61.77;97351.94;5048707;28;20087;-78
2021/09/16 10:13:34;;;;;;;7.15;5.97;;;;;;;20.85;60.46;97353.75;4998743;28;20028;-78
2021/09/16 10:16:06;;;;;;;7.25;6.55;;;;;;;21.16;60.18;97352.91;4998166;28;20044;-78
2021/09/16 10:18:32;;;;;;;6.50;5.90;;;;;;;21.28;57.53;97355.72;5015439;28;20086;-78
2021/09/16 10:21:00;;;;;;;7.03;5.82;;;;;;;21.35;58.09;97358.69;5014368;28;20314;-78
2021/09/16 10:23:28;;;;;;;7.43;6.55;;;;;;;21.25;60.38;97351.81;5031739;28;20036;-78
2021/09/16 10:25:53;;;;;;;6.15;5.00;;;;;;;21.44;58.21;97354.19;5030259;28;20041;-77
2021/09/16 10:28:19;;;;;;;5.82;5.25;;;;;;;21.35;59.33;97350.72;5014385;28;20037;-78
2021/09/16 10:30:48;;;;;;;7.57;5.50;;;;;;;21.31;57.32;97349.81;5013953;28;20032;-77
2021/09/16 10:33:23;;;;;;;5.45;4.80;;;;;;;21.02;60.21;97355.66;5030739;28;20154;-78
2021/09/16 10:35:57;;;;;;;5.88;4.90;;;;;;;20.96;60.00;97352.41;5029394;28;20064;-78
2021/09/16 10:38:42;;;;;;;6.40;4.82;;;;;;;20.83;58.94;97351.41;5048322;28;20501;-78
2021/09/16 10:41:21;;;;;;;5.93;4.43;;;;;;;20.98;59.54;97349.44;5029502;28;20662;-77
2021/09/16 10:43:59;;;;;;;5.55;3.95;;;;;;;21.14;57.07;97356.63;5014004;28;20041;-78
2021/09/16 10:46:38;;;;;;;5.07;4.45;;;;;;;21.05;57.60;97355.06;5047877;28;20378;-78
2021/09/16 10:49:23;;;;;;;5.10;4.63;;;;;;;20.86;59.59;97347.38;5014040;28;20025;-78
2021/09/16 10:51:50;;;;;;;6.15;4.32;;;;;;;21.10;58.48;97350.41;5030101;28;20523;-78
2021/09/16 10:54:24;;;;;;;6.18;4.97;;;;;;;21.22;59.51;97352.44;5048536;28;20108;-78
2021/09/16 10:57:14;;;;;;;4.82;4.10;;;;;;;21.31;59.05;97344.50;5048244;28;20029;-78
2021/09/16 10:59:51;;;;;;;4.40;3.90;;;;;;;21.32;56.21;97343.44;5036887;28;20047;-78
2021/09/16 11:02:19;;;;;;;4.78;4.28;;;;;;;21.55;57.35;97338.00;5068571;28;20407;-78
2021/09/16 11:04:54;;;;;;;4.43;3.63;;;;;;;21.64;57.01;97336.94;4999790;28;20029;-78
2021/09/16 11:07:31;;;;;;;5.38;3.67;;;;;;;21.94;57.25;97338.94;5047372;28;20519;-78
2021/09/16 11:10:17;;;;;;;4.97;3.95;;;;;;;22.62;52.00;97337.19;5019720;28;20296;-78
2021/09/16 11:12:43;;;;;;;3.83;2.88;;;;;;;22.72;50.02;97335.28;5012093;28;20392;-78
2021/09/16 11:15:10;;;;;;;4.07;3.15;;;;;;;22.45;52.96;97337.28;4997831;28;20021;-78
2021/09/16 11:17:40;;;;;;;4.22;3.70;;;;;;;21.94;53.51;97344.22;5013299;28;20435;-78
2021/09/16 11:20:07;;;;;;;3.30;3.00;;;;;;;21.99;53.78;97336.13;5048661;28;20084;-78
2021/09/16 11:22:33;;;;;;;3.28;2.97;;;;;;;21.86;54.80;97337.84;5026743;28;20025;-78
2021/09/16 11:24:59;;;;;;;3.08;2.78;;;;;;;22.21;53.33;97321.88;5030320;28;20040;-78